createdAt,value
2023-04-16T00:08:32.119Z,8.06
2023-04-16T00:13:41.990Z,8.06
2023-04-16T00:18:50.369Z,8.06
2023-04-16T00:23:58.201Z,8.12
2023-04-16T00:29:06.922Z,8.06
2023-04-16T00:34:16.467Z,8.25
2023-04-16T00:39:26.204Z,8.12
2023-04-16T00:44:35.993Z,8.06
2023-04-16T00:49:45.721Z,8.12
2023-04-16T00:54:56.117Z,8.19
2023-04-16T01:00:04.621Z,8.19
2023-04-16T01:05:13.081Z,8.25
2023-04-16T01:10:22.851Z,8.25
2023-04-16T01:15:31.321Z,8.19
2023-04-16T01:20:40.439Z,8.31
2023-04-16T01:25:49.549Z,8.25
2023-04-16T01:30:58.127Z,8.12
2023-04-16T01:36:07.820Z,8.31
2023-04-16T01:41:17.561Z,8.25
2023-04-16T01:46:27.996Z,8.19
2023-04-16T01:51:36.438Z,8.12
2023-04-16T01:56:45.561Z,8.19
2023-04-16T02:01:54.913Z,8.19
2023-04-16T02:07:03.801Z,8.06
2023-04-16T02:12:14.233Z,8.06
2023-04-16T02:17:24.024Z,8
2023-04-16T02:22:33.733Z,7.81
2023-04-16T02:27:42.212Z,7.88
2023-04-16T02:32:52.010Z,7.94
2023-04-16T02:38:01.084Z,8
2023-04-16T02:43:09.554Z,7.94
2023-04-16T02:48:19.331Z,7.88
2023-04-16T02:53:27.203Z,7.94
2023-04-16T02:58:36.271Z,8
2023-04-16T03:03:45.436Z,7.94
2023-04-16T03:50:06.866Z,8.25
2023-04-16T03:55:16.685Z,8.31
2023-04-16T04:00:27.008Z,8.25
2023-04-16T04:05:36.762Z,8.44
2023-04-16T04:10:47.162Z,8.31
2023-04-16T04:15:55.771Z,8.25
2023-04-16T04:21:06.072Z,8.31
2023-04-16T04:26:14.591Z,8.31
2023-04-16T04:31:23.806Z,8.31
2023-04-16T04:36:34.037Z,8.38
2023-04-16T04:41:43.867Z,8.38
2023-04-16T04:46:53.560Z,8.5
2023-04-16T04:52:02.037Z,8.5
2023-04-16T04:57:11.171Z,8.5
2023-04-16T05:02:21.127Z,8.56
2023-04-16T05:07:29.400Z,8.56
2023-04-16T05:12:39.159Z,8.69
2023-04-16T05:17:47.696Z,8.56
2023-04-16T05:22:56.776Z,8.44
2023-04-16T05:28:05.882Z,8.5
2023-04-16T05:33:15.641Z,8.5
2023-04-16T05:38:24.761Z,8.38
2023-04-16T05:43:33.880Z,8.62
2023-04-16T05:48:43.013Z,8.44
2023-04-16T05:53:52.763Z,8.56
2023-04-16T05:59:01.880Z,8.56
2023-04-16T06:04:12.743Z,8.56
2023-04-16T06:09:20.763Z,8.5
2023-04-16T06:14:30.502Z,8.62
2023-04-16T06:19:39.000Z,8.56
2023-04-16T06:24:49.410Z,8.62
2023-04-16T06:29:57.879Z,8.75
2023-04-16T06:35:06.990Z,8.75
2023-04-16T06:40:15.501Z,8.88
2023-04-16T07:26:40.134Z,8.94
2023-04-16T07:31:48.733Z,9.06
2023-04-16T07:36:57.085Z,9.12
2023-04-16T07:42:05.558Z,9.38
2023-04-16T07:47:14.701Z,9.44
2023-04-16T07:52:23.169Z,9.69
2023-04-16T07:57:31.635Z,9.19
2023-04-16T08:02:40.410Z,9.44
2023-04-16T08:07:48.610Z,9.44
2023-04-16T08:12:57.087Z,9.19
2023-04-16T08:18:05.702Z,9.12
2023-04-16T08:23:14.042Z,9.31
2023-04-16T08:28:23.800Z,9.38
2023-04-16T08:33:33.558Z,9.31
2023-04-16T08:38:45.875Z,9.38
2023-04-16T08:43:56.286Z,9.62
2023-04-16T08:49:06.037Z,9.81
2023-04-16T08:54:14.536Z,9.69
2023-04-16T08:59:23.646Z,9.38
2023-04-16T09:04:32.304Z,9.62
2023-04-16T09:09:41.881Z,10
2023-04-16T09:14:50.362Z,10
2023-04-16T09:19:59.479Z,9.94
2023-04-16T09:25:08.668Z,9.75
2023-04-16T09:30:17.081Z,9.75
2023-04-16T09:35:26.863Z,10
2023-04-16T09:40:36.613Z,10.12
2023-04-16T09:45:45.815Z,10.5
2023-04-16T09:50:54.218Z,10.38
2023-04-16T09:56:03.327Z,10.5
2023-04-16T10:01:11.887Z,10.31
2023-04-16T10:06:20.299Z,10.44
2023-04-16T10:11:29.409Z,10.56
2023-04-16T10:16:38.602Z,10.88
2023-04-16T11:03:00.041Z,11.62
2023-04-16T11:08:09.175Z,11.88
2023-04-16T11:13:18.845Z,11.25
2023-04-16T11:18:28.597Z,11.44
2023-04-16T11:23:39.024Z,11.75
2023-04-16T11:28:48.117Z,11.5
2023-04-16T11:33:57.245Z,11.44
2023-04-16T11:39:06.369Z,11.5
2023-04-16T11:44:14.843Z,11.94
2023-04-16T11:49:23.321Z,12.31
2023-04-16T11:54:32.454Z,12.12
2023-04-16T12:00:03.554Z,12
2023-04-16T12:04:50.737Z,12.19
2023-04-16T12:09:59.847Z,12.12
2023-04-16T12:15:08.918Z,12.38
2023-04-16T12:20:17.397Z,12.5
2023-04-16T12:32:41.133Z,12.44
2023-04-16T12:37:49.684Z,12.38
2023-04-16T12:42:58.035Z,12.88
2023-04-16T12:48:06.518Z,12.94
2023-04-16T12:53:15.038Z,12.62
2023-04-16T12:58:23.479Z,12.62
2023-04-16T13:03:33.468Z,12.62
2023-04-16T13:08:43.024Z,12.75
2023-04-16T13:13:52.762Z,12.62
2023-04-16T13:19:01.968Z,12.94
2023-04-16T13:24:11.005Z,13.06
2023-04-16T13:29:20.793Z,13
2023-04-16T13:34:29.883Z,12.88
2023-04-16T13:39:38.380Z,13.12
2023-04-16T13:44:46.837Z,13
2023-04-16T13:49:55.958Z,12.88
2023-04-16T13:55:04.448Z,13.25
2023-04-16T14:00:13.618Z,13.25
2023-04-16T14:05:25.214Z,13.19
2023-04-16T14:10:31.806Z,13.25
2023-04-16T14:15:41.584Z,13
2023-04-16T14:20:51.320Z,13.31
2023-04-16T14:26:01.099Z,13.19
2023-04-16T14:31:10.214Z,12.81
2023-04-16T14:36:18.034Z,12.69
2023-04-16T14:41:27.813Z,12.81
2023-04-16T14:46:36.283Z,12.62
2023-04-16T14:51:45.412Z,12.81
2023-04-16T14:56:54.538Z,12.88
2023-04-16T15:02:03.769Z,12.88
2023-04-16T15:07:13.429Z,12.75
2023-04-16T15:12:21.876Z,12.88
2023-04-16T15:17:30.435Z,12.69
2023-04-16T15:22:39.476Z,12.88
2023-04-16T15:27:49.241Z,12.69
2023-04-16T15:32:58.441Z,12.75
2023-04-16T16:14:08.147Z,12.62
2023-04-16T16:19:16.784Z,12.75
2023-04-16T16:24:25.092Z,12.69
2023-04-16T16:29:34.860Z,12.81
2023-04-16T16:34:43.966Z,12.81
2023-04-16T16:39:54.375Z,12.69
2023-04-16T16:45:03.476Z,12.81
2023-04-16T16:50:13.888Z,12.56
2023-04-16T16:55:23.009Z,12.69
2023-04-16T17:00:32.990Z,12.69
2023-04-16T17:05:42.524Z,12.56
2023-04-16T17:10:51.009Z,12.69
2023-04-16T17:16:00.788Z,12.44
2023-04-16T17:21:11.217Z,12.5
2023-04-16T17:26:19.661Z,12.5
2023-04-16T17:31:27.647Z,12.38
2023-04-16T17:36:35.960Z,12.31
2023-04-16T17:41:44.451Z,12.25
2023-04-16T17:46:53.584Z,12.25
2023-04-16T17:52:01.430Z,12.19
2023-04-16T17:57:11.160Z,12.12
2023-04-16T18:02:20.606Z,12.12
2023-04-16T18:07:29.412Z,12.19
2023-04-16T18:12:39.185Z,12.12
2023-04-16T18:17:48.996Z,12
2023-04-16T18:22:56.764Z,12
2023-04-16T18:28:06.546Z,12
2023-04-16T18:33:53.318Z,11.94
2023-04-16T18:38:24.118Z,12
2023-04-16T18:43:33.258Z,12
2023-04-16T18:48:42.371Z,11.94
2023-04-16T18:53:51.479Z,12
2023-04-16T18:58:59.971Z,12.12
2023-04-16T19:04:08.515Z,12.12
2023-04-16T19:09:17.472Z,12.25
2023-04-16T19:50:32.463Z,11.44
2023-04-16T19:55:41.019Z,11.38
2023-04-16T20:00:50.771Z,11.06
2023-04-16T20:05:59.806Z,10.81
2023-04-16T20:11:08.930Z,10.75
2023-04-16T20:16:18.207Z,10.81
2023-04-16T20:21:26.519Z,10.75
2023-04-16T20:26:35.002Z,10.69
2023-04-16T20:31:46.065Z,10.62
2023-04-16T20:36:55.168Z,10.62
2023-04-16T20:42:03.637Z,10.5
2023-04-16T20:47:12.766Z,10.38
2023-04-16T20:52:21.242Z,10.38
2023-04-16T20:57:31.035Z,10.31
2023-04-16T21:02:41.051Z,10.12
2023-04-16T21:07:50.541Z,10.5
2023-04-16T21:13:00.278Z,10.5
2023-04-16T21:18:08.775Z,10.44
2023-04-16T21:23:17.899Z,10.44
2023-04-16T21:28:26.366Z,10.62
2023-04-16T21:33:34.847Z,10.75
2023-04-16T21:38:43.981Z,10.75
2023-04-16T21:43:52.440Z,10.75
2023-04-16T21:49:01.566Z,10.69
2023-04-16T21:54:11.346Z,10.81
2023-04-16T21:59:19.809Z,10.88
2023-04-16T22:04:29.565Z,11
2023-04-16T22:09:38.056Z,11
2023-04-16T22:15:02.678Z,10.88
2023-04-16T22:19:56.933Z,10.88
2023-04-16T22:25:05.434Z,10.75
2023-04-16T22:30:15.160Z,10.75
2023-04-16T22:35:24.930Z,10.81
2023-04-16T22:40:34.044Z,10.75
2023-04-16T23:26:58.682Z,10.06
2023-04-16T23:32:07.907Z,9.94
2023-04-16T23:37:16.929Z,10.12
2023-04-16T23:42:26.027Z,9.88
2023-04-16T23:47:35.227Z,10.06
2023-04-16T23:52:44.264Z,9.88
2023-04-16T23:57:52.754Z,9.88
